»·PEaware :: N81041 KREI-KRNM

N81041 :: KREI-KRNM

FLIGHT INFORMATION

Flight Status: Arrived
Operator: Privately registered:
United States
More flights under this callsign
Pilot: John C. (12173)
Aircraft: GRUMMAN AERO AA5 CHEETAH TIGER
(AA5)
More flights by this aircraft type
Origin: KREI Redlands Mun
United States
Destination: KRNM Ramona
United States
More flights between these airports :: More routes between these airports
Route: +PDZ V186 ROBNN V208 JLI
File this flight plan on PilotEdge
Remarks:
Altitude:
(Current/Filed)
7,000ft
Speed:
(Current/Filed)
130kts
Departed: 22-Nov-20 05:46 PM
Arrived: 22-Nov-20 06:31 PM
Distance/Time
Traveled:
64nm/0:45
Distance/Time
To Go:
Arrived

Flight Plot

Page will automatically refresh every two minutes.


Map Options




Map Legend


Flown Route
Filed Route
Departure Airport
Arrival Airport
Navaid (VOR, NDB)
Fix

Horizontal Profiles

Position Reports

Time Latitude Longitude Heading Altitude Ground
Speed
22-Nov-20 17:35 34.085304 -117.139862 269 1569ft 0kts
22-Nov-20 17:36 34.085304 -117.139862 269 1569ft 0kts
22-Nov-20 17:37 34.085304 -117.139862 268 1569ft 0kts
22-Nov-20 17:38 34.085304 -117.139862 268 1569ft 0kts
22-Nov-20 17:40 34.085304 -117.139862 268 1569ft 0kts
22-Nov-20 17:40 34.085304 -117.139862 268 1569ft 0kts
22-Nov-20 17:41 34.085304 -117.139862 268 1569ft 0kts
22-Nov-20 17:42 34.085304 -117.139862 268 1569ft 0kts
22-Nov-20 17:43 34.085304 -117.139862 268 1569ft 0kts
22-Nov-20 17:44 34.085304 -117.139862 268 1569ft 0kts
22-Nov-20 17:45 34.084873 -117.158936 267 1863ft 85kts
22-Nov-20 17:46 34.074372 -117.188025 244 2322ft 108kts
22-Nov-20 17:47 34.060739 -117.221570 244 2723ft 113kts
22-Nov-20 17:48 34.047166 -117.253817 243 3099ft 113kts
22-Nov-20 17:49 34.032898 -117.287343 243 3496ft 113kts
22-Nov-20 17:50 34.018385 -117.321384 243 3952ft 111kts
22-Nov-20 17:51 34.003973 -117.353657 240 4451ft 108kts
22-Nov-20 17:52 33.988723 -117.384502 240 4952ft 107kts
22-Nov-20 17:53 33.974218 -117.414524 240 5439ft 105kts
22-Nov-20 17:54 33.959669 -117.444610 240 5935ft 104kts
22-Nov-20 17:55 33.945325 -117.474854 241 6437ft 103kts
22-Nov-20 17:56 33.931612 -117.504918 241 6922ft 103kts
22-Nov-20 17:57 33.911115 -117.526782 145 7021ft 120kts
22-Nov-20 17:58 33.886042 -117.499950 137 7030ft 116kts
22-Nov-20 17:59 33.861370 -117.476887 144 7034ft 114kts
22-Nov-20 18:00 33.833752 -117.455701 149 7033ft 117kts
22-Nov-20 18:01 33.805240 -117.435891 150 7027ft 118kts
22-Nov-20 18:02 33.777424 -117.414705 145 7024ft 118kts
22-Nov-20 18:03 33.751240 -117.390828 140 7026ft 118kts
22-Nov-20 18:04 33.725708 -117.365445 144 7024ft 119kts
22-Nov-20 18:05 33.698932 -117.342147 145 7024ft 118kts
22-Nov-20 18:06 33.671567 -117.320007 146 7025ft 118kts
22-Nov-20 18:07 33.644267 -117.297872 146 7024ft 118kts
22-Nov-20 18:08 33.617007 -117.275664 146 7023ft 118kts
22-Nov-20 18:09 33.589698 -117.253452 146 7024ft 118kts
22-Nov-20 18:10 33.562348 -117.231269 146 7024ft 119kts
22-Nov-20 18:11 33.536313 -117.210116 146 7025ft 120kts
22-Nov-20 18:12 33.507262 -117.186568 146 7022ft 120kts
22-Nov-20 18:13 33.485710 -117.169067 146 7026ft 120kts
22-Nov-20 18:14 33.449944 -117.149932 168 7026ft 120kts
22-Nov-20 18:15 33.416488 -117.141259 170 7022ft 119kts
22-Nov-20 18:16 33.383332 -117.135349 173 7026ft 121kts
22-Nov-20 18:17 33.349601 -117.131107 176 7021ft 122kts
22-Nov-20 18:18 33.310282 -117.122134 147 4886ft 165kts
22-Nov-20 18:19 33.277624 -117.093219 142 4068ft 130kts
22-Nov-20 18:20 33.249719 -117.069444 148 4028ft 122kts
22-Nov-20 18:21 33.223434 -117.049837 147 4026ft 121kts
22-Nov-20 18:22 33.192431 -117.026037 147 4023ft 121kts
22-Nov-20 18:23 33.164108 -117.004249 147 4025ft 121kts
22-Nov-20 18:24 33.137007 -116.984281 155 4258ft 105kts
22-Nov-20 18:25 33.108226 -116.975474 169 3837ft 107kts
22-Nov-20 18:26 33.079305 -116.968369 167 3077ft 103kts
22-Nov-20 18:27 33.053884 -116.957474 148 2397ft 91kts
22-Nov-20 18:28 33.041794 -116.933920 97 1635ft 76kts
22-Nov-20 18:29 33.039013 -116.914104 102 1394ft 42kts
22-Nov-20 18:30 33.039167 -116.912434 9 1395ft 0kts
22-Nov-20 18:31 33.039470 -116.911049 8 1396ft 9kts

Navigation Log

Ident Type
Flight plan parsing failed, navigation log unavailable